Terminal Aerodrome Forecast
Issued by NWS

Home | Current Version | Previous Version | Text Only | Print | Product List | Glossary Off
Versions: 1 2 3 4 5 6 7 8 9 10 11 12 13 14 15 16 17 18 19

319
FTUS43 KTOP 192000 AAA
TAFFOE
TAF AMD
KFOE 192050Z 1921/2018 07011KT P6SM BKN200
     FM192300 06011KT P6SM VCSH BKN050
     FM200400 05012KT 5SM -RA BR OVC025
     FM200800 03013KT 3SM RA BR OVC006
     FM201400 03012KT 5SM BR OVC008=

USA.gov is the U.S. government's official web portal to all federal, state and local government web resources and services.